Weather History for KLRU - July, 2013

Change the Weather History Date:

Thursday, July 4, 2013

  Actual Average (KDMN) Record (KDMN)
Temperature  
Mean Temperature 80 °F 81 °F  
Max Temperature 95 °F 97 °F 107 °F (1957)
Min Temperature 64 °F 65 °F 56 °F (1983)
Cooling Degree Days 14    
Growing Degree Days 30 (Base 50)    
Moisture  
Dew Point 50 °F    
Average Humidity 38    
Maximum Humidity 70    
Minimum Humidity 21    
Precipitation  
Precipitation 0.00 in 0.05 in 1.68 in (1986)
Month to date precipitation 0.20  
Year to date precipitation 3.31  
Sea Level Pressure  
Sea Level Pressure 29.99 in    
Wind  
Wind Speed 5 mph (SSW)    
Max Wind Speed 16 mph    
Max Gust Speed 20 mph    
Visibility 10 miles    
Events Thunderstorm    
T = Trace of Precipitation, MM = Missing Value Source: NWS Daily Summary

Daily Weather History Graph

Daily Weather History Graph

Search for Another Location

Airport or City:

Trip Planner

Search our weather history database for the weather conditions in past years. The results will help you decide how hot, cold, wet, or windy it might be!

Date:

Astronomy

Jul. 04, 2013 Rise Set
Actual Time 6:05 AM MDT 8:18 PM MDT
Civil Twilight 5:37 AM MDT 8:46 PM MDT
Nautical Twilight 5:03 AM MDT 9:20 PM MDT
Astronomical Twilight 4:26 AM MDT 9:57 PM MDT
Moon 3:20 AM MDT (7/4) 5:28 PM MDT (7/4)
Length of Visible Light 15h 08m
Length of Day
14h 12m
Waning Crescent, 11% of the Moon is Illuminated
Jul 4
Waning Crescent
Jul 8
New
Jul 15
First Quarter
Jul 22
Full
Jul 29
Last Quarter

Hourly Weather History & Observations

Time (MDT) Temp. Heat Index Dew Point Humidity Pressure Visibility Wind Dir Wind Speed Gust Speed Precip Events Conditions
12:15 AM 75.2 °F - 46.8 °F 36% 30.03 in 10.0 mi Calm Calm - N/A   Clear
12:35 AM 74.3 °F - 49.3 °F 41% 30.04 in 10.0 mi SE 3.5 mph - N/A   Clear
12:55 AM 73.8 °F - 49.1 °F 42% 30.03 in 10.0 mi SSW 4.6 mph - N/A   Clear
1:15 AM 72.0 °F - 50.0 °F 46% 30.04 in 10.0 mi NNW 5.8 mph - N/A   Clear
1:35 AM 70.2 °F - 51.4 °F 51% 30.04 in 10.0 mi NW 5.8 mph - N/A   Clear
1:55 AM 69.8 °F - 50.4 °F 50% 30.05 in 10.0 mi NNW 8.1 mph - N/A   Clear
2:15 AM 69.8 °F - 50.0 °F 49% 30.04 in 10.0 mi NNW 6.9 mph - N/A   Clear
2:35 AM 72.0 °F - 48.2 °F 43% 30.07 in 10.0 mi NNW 13.8 mph - N/A   Scattered Clouds
2:55 AM 73.4 °F - 47.5 °F 40% 30.05 in 10.0 mi North 8.1 mph - N/A   Scattered Clouds
3:15 AM 72.9 °F - 50.5 °F 45% 30.03 in 10.0 mi NW 8.1 mph - N/A   Clear
3:35 AM 72.0 °F - 51.4 °F 48% 30.01 in 10.0 mi NNW 3.5 mph - N/A   Clear
3:55 AM 70.9 °F - 50.9 °F 49% 30.00 in 10.0 mi Calm Calm - N/A   Clear
4:15 AM 69.3 °F - 51.6 °F 53% 29.99 in 10.0 mi SE 3.5 mph - N/A   Clear
4:35 AM 67.8 °F - 51.6 °F 56% 29.99 in 10.0 mi Calm Calm - N/A   Clear
4:55 AM 68.0 °F - 53.4 °F 60% 29.99 in 10.0 mi ESE 4.6 mph - N/A   Clear
5:15 AM 67.1 °F - 53.1 °F 61% 30.00 in 10.0 mi East 4.6 mph - N/A   Clear
5:35 AM 66.4 °F - 52.7 °F 61% 30.01 in 10.0 mi Calm Calm - N/A   Clear
5:55 AM 67.6 °F - 52.9 °F 59% 30.01 in 10.0 mi Calm Calm - N/A   Clear
6:15 AM 65.7 °F - 54.3 °F 67% 30.01 in 10.0 mi West 4.6 mph - N/A   Clear
6:35 AM 64.9 °F - 54.9 °F 70% 30.01 in 10.0 mi West 4.6 mph - N/A   Clear
6:55 AM 66.2 °F - 55.2 °F 68% 30.01 in 10.0 mi West 3.5 mph - N/A   Clear
7:15 AM 66.6 °F - 54.5 °F 65% 30.02 in 10.0 mi West 3.5 mph - N/A   Clear
7:35 AM 68.0 °F - 54.1 °F 61% 30.02 in 10.0 mi Calm Calm - N/A   Clear
7:55 AM 69.8 °F - 53.6 °F 56% 30.03 in 10.0 mi Calm Calm - N/A   Clear
8:15 AM 72.3 °F - 53.4 °F 51% 30.04 in 10.0 mi West 3.5 mph - N/A   Clear
8:35 AM 73.0 °F - 52.9 °F 49% 30.04 in 10.0 mi SW 3.5 mph - N/A   Clear
8:55 AM 75.4 °F - 51.8 °F 44% 30.04 in 10.0 mi Calm Calm - N/A   Clear
9:15 AM 76.8 °F - 50.4 °F 39% 30.04 in 10.0 mi SSE 3.5 mph - N/A   Clear
9:35 AM 78.3 °F - 49.1 °F 36% 30.04 in 10.0 mi SSE 5.8 mph - N/A   Clear
9:55 AM 79.9 °F - 48.7 °F 34% 30.04 in 10.0 mi SE 5.8 mph - N/A   Clear
10:15 AM 79.5 °F - 48.6 °F 34% 30.04 in 10.0 mi SE 9.2 mph - N/A   Clear
10:35 AM 82.0 °F - 48.6 °F 31% 30.04 in 10.0 mi South 4.6 mph - N/A   Clear
10:55 AM 81.5 °F - 48.2 °F 31% 30.04 in 10.0 mi SSW 6.9 mph - N/A   Clear
11:15 AM 82.0 °F - 48.4 °F 31% 30.04 in 10.0 mi South 3.5 mph - N/A   Clear
11:35 AM 84.4 °F - 48.9 °F 29% 30.04 in 10.0 mi SSE 5.8 mph - N/A   Clear
11:55 AM 85.5 °F - 49.1 °F 28% 30.03 in 10.0 mi South 8.1 mph - N/A   Clear
12:15 PM 85.5 °F - 48.4 °F 28% 30.03 in 10.0 mi Calm Calm - N/A   Clear
12:35 PM 87.1 °F - 48.2 °F 26% 30.01 in 10.0 mi South 5.8 mph - N/A   Clear
12:55 PM 89.4 °F - 47.7 °F 24% 30.01 in 10.0 mi South 5.8 mph - N/A   Clear
1:15 PM 89.8 °F - 46.8 °F 23% 30.00 in 10.0 mi SW 4.6 mph - N/A   Clear
1:35 PM 91.2 °F - 50.5 °F 25% 29.99 in 10.0 mi East 10.4 mph - N/A   Clear
1:55 PM 92.1 °F - 48.9 °F 23% 29.99 in 10.0 mi East 13.8 mph 18.4 mph N/A   Clear
2:15 PM 92.3 °F - 49.8 °F 23% 29.98 in 10.0 mi East 11.5 mph 18.4 mph N/A   Clear
2:35 PM 93.0 °F - 50.0 °F 23% 29.97 in 10.0 mi East 12.7 mph 16.1 mph N/A   Clear
2:55 PM 92.8 °F - 49.1 °F 22% 29.95 in 10.0 mi ESE 9.2 mph 17.3 mph N/A   Clear
3:15 PM 94.1 °F - 49.6 °F 22% 29.95 in 10.0 mi ESE 11.5 mph 17.3 mph N/A   Clear
3:35 PM 94.6 °F - 50.0 °F 22% 29.94 in 10.0 mi East 13.8 mph 19.6 mph N/A   Clear
3:55 PM 95.0 °F - 48.9 °F 21% 29.93 in 10.0 mi East 11.5 mph 19.6 mph N/A   Clear
4:15 PM 94.1 °F - 49.1 °F 21% 29.93 in 10.0 mi East 12.7 mph 18.4 mph N/A   Clear
4:35 PM 94.3 °F - 48.0 °F 21% 29.92 in 10.0 mi East 10.4 mph - N/A   Clear
4:55 PM 93.9 °F - 48.0 °F 21% 29.91 in 10.0 mi ESE 11.5 mph 18.4 mph N/A Thunderstorm Clear
5:15 PM 92.1 °F - 47.5 °F 22% 29.91 in 10.0 mi ESE 10.4 mph - N/A   Clear
5:35 PM 91.6 °F - 47.5 °F 22% 29.91 in 10.0 mi ESE 11.5 mph - N/A Thunderstorm Scattered Clouds
5:55 PM 87.4 °F - 49.6 °F 27% 29.92 in 10.0 mi WSW 16.1 mph 19.6 mph N/A   Scattered Clouds
6:15 PM 88.5 °F - 48.9 °F 25% 29.93 in 10.0 mi WSW 16.1 mph - N/A   Clear
6:35 PM 86.4 °F - 49.3 °F 28% 29.94 in 10.0 mi SW 15.0 mph - N/A   Clear
6:55 PM 86.9 °F - 49.3 °F 27% 29.93 in 10.0 mi SW 9.2 mph - N/A   Clear
7:15 PM 87.3 °F - 48.2 °F 26% 29.93 in 10.0 mi Calm Calm - N/A   Clear
7:35 PM 87.3 °F - 47.7 °F 25% 29.93 in 10.0 mi Calm Calm - N/A   Clear
7:55 PM 86.9 °F - 48.4 °F 26% 29.94 in 10.0 mi WSW 3.5 mph - N/A   Clear
8:15 PM 86.4 °F - 49.1 °F 27% 29.94 in 10.0 mi SSW 4.6 mph - N/A   Clear
8:35 PM 84.7 °F - 50.7 °F 31% 29.95 in 10.0 mi WSW 4.6 mph - N/A   Clear
8:55 PM 83.3 °F - 52.2 °F 34% 29.95 in 10.0 mi WSW 5.8 mph - N/A   Clear
9:15 PM 82.4 °F 81.3 °F 53.2 °F 36% 29.95 in 10.0 mi WSW 4.6 mph - N/A   Clear
9:35 PM 81.0 °F 80.5 °F 53.8 °F 39% 29.96 in 10.0 mi West 6.9 mph - N/A   Clear
9:55 PM 80.1 °F 80.0 °F 53.4 °F 40% 29.96 in 10.0 mi West 4.6 mph - N/A   Clear
10:15 PM 79.3 °F - 52.3 °F 39% 29.98 in 10.0 mi WNW 3.5 mph - N/A   Clear
10:35 PM 78.4 °F - 52.5 °F 40% 29.98 in 10.0 mi Calm Calm - N/A   Clear
10:55 PM 77.4 °F - 53.8 °F 44% 29.98 in 10.0 mi Calm Calm - N/A   Clear
11:15 PM 77.2 °F - 53.8 °F 44% 29.98 in 10.0 mi Calm Calm - N/A   Clear
11:35 PM 76.3 °F - 53.6 °F 45% 29.99 in 10.0 mi West 5.8 mph - N/A   Clear
11:55 PM 75.4 °F - 52.0 °F 44% 29.98 in 10.0 mi West 9.2 mph - N/A   Clear